createdAt,value
2023-03-17T00:00:15.369Z,1014.11
2023-03-17T00:01:15.337Z,1014.09
2023-03-17T00:02:15.336Z,1014.07
2023-03-17T00:03:15.439Z,1014.07
2023-03-17T00:04:15.235Z,1014.07
2023-03-17T00:05:15.183Z,1014.07
2023-03-17T00:06:15.156Z,1014.03
2023-03-17T00:07:15.122Z,1014.03
2023-03-17T00:08:15.062Z,1014.01
2023-03-17T00:09:15.119Z,1013.97
2023-03-17T00:10:14.999Z,1014.01
2023-03-17T00:11:14.989Z,1014.03
2023-03-17T00:12:14.923Z,1014.02
2023-03-17T00:13:14.883Z,1014.04
2023-03-17T00:14:14.857Z,1014.04
2023-03-17T00:15:14.918Z,1014.01
2023-03-17T00:16:14.848Z,1014.03
2023-03-17T00:17:14.759Z,1014.11
2023-03-17T00:18:14.693Z,1014.12
2023-03-17T00:19:14.663Z,1014.09
2023-03-17T00:20:14.630Z,1014.08
2023-03-17T00:21:14.657Z,1014.04
2023-03-17T00:22:14.547Z,1014.01
2023-03-17T00:23:14.512Z,1014.03
2023-03-17T00:24:15.172Z,1014.00
2023-03-17T00:25:14.444Z,1013.95
2023-03-17T00:26:14.423Z,1013.94
2023-03-17T00:27:14.429Z,1013.86
2023-03-17T00:28:14.344Z,1013.87
2023-03-17T00:29:14.309Z,1013.87
2023-03-17T00:30:14.263Z,1013.85
2023-03-17T00:31:14.259Z,1013.84
2023-03-17T00:32:14.192Z,1013.83
2023-03-17T00:33:14.209Z,1013.79
2023-03-17T00:34:14.112Z,1013.82
2023-03-17T00:35:14.076Z,1013.74
2023-03-17T00:36:14.038Z,1013.76
2023-03-17T00:37:14.007Z,1013.76
2023-03-17T00:38:14.044Z,1013.71
2023-03-17T00:40:06.379Z,1013.61
2023-03-17T00:41:06.328Z,1013.61
2023-03-17T00:42:06.290Z,1013.60
2023-03-17T00:43:06.253Z,1013.56
2023-03-17T00:44:06.291Z,1013.52
2023-03-17T00:45:06.189Z,1013.44
2023-03-17T00:46:06.144Z,1013.48
2023-03-17T00:47:06.145Z,1013.46
2023-03-17T00:48:06.090Z,1013.42
2023-03-17T00:49:06.023Z,1013.43
2023-03-17T00:50:06.054Z,1013.37
2023-03-17T00:51:05.951Z,1013.35
2023-03-17T00:52:05.915Z,1013.28
2023-03-17T00:53:05.877Z,1013.34
2023-03-17T00:54:05.848Z,1013.35
2023-03-17T00:55:05.816Z,1013.35
2023-03-17T00:56:05.845Z,1013.42
2023-03-17T00:57:05.746Z,1013.38
2023-03-17T00:58:05.691Z,1013.35
2023-03-17T00:59:05.693Z,1013.33
2023-03-17T01:00:05.626Z,1013.35
2023-03-17T01:01:05.716Z,1013.40
2023-03-17T01:02:05.683Z,1013.42
2023-03-17T01:03:05.540Z,1013.38
2023-03-17T01:04:05.565Z,1013.42
2023-03-17T01:05:06.948Z,1013.41
2023-03-17T01:06:05.411Z,1013.41
2023-03-17T01:07:05.371Z,1013.45
2023-03-17T01:08:05.321Z,1013.49
2023-03-17T01:09:05.384Z,1013.47
2023-03-17T01:10:05.255Z,1013.48
2023-03-17T01:11:05.206Z,1013.47
2023-03-17T01:12:05.301Z,1013.48
2023-03-17T01:13:05.154Z,1013.50
2023-03-17T01:14:05.582Z,1013.48
2023-03-17T01:15:05.062Z,1013.45
2023-03-17T01:16:05.086Z,1013.39
2023-03-17T01:17:05.022Z,1013.41
2023-03-17T01:18:04.955Z,1013.35
2023-03-17T01:19:05.003Z,1013.36
2023-03-17T01:20:04.885Z,1013.34
2023-03-17T01:21:04.893Z,1013.28
2023-03-17T01:22:04.894Z,1013.26
2023-03-17T01:23:04.785Z,1013.27
2023-03-17T01:24:04.801Z,1013.24
2023-03-17T01:25:04.724Z,1013.19
2023-03-17T01:26:04.678Z,1013.20
2023-03-17T01:27:04.639Z,1013.14
2023-03-17T01:28:04.611Z,1013.12
2023-03-17T01:29:04.619Z,1013.10
2023-03-17T01:30:04.529Z,1013.06
2023-03-17T01:31:04.470Z,1013.07
2023-03-17T01:32:04.442Z,1013.00
2023-03-17T01:33:04.499Z,1013.00
2023-03-17T01:34:04.374Z,1013.03
2023-03-17T01:35:04.398Z,1013.01
2023-03-17T01:36:04.320Z,1012.99
2023-03-17T01:37:04.256Z,1012.94
2023-03-17T01:38:04.220Z,1012.91
2023-03-17T01:39:04.245Z,1012.91
2023-03-17T01:40:04.244Z,1012.93
2023-03-17T01:41:04.117Z,1012.92
2023-03-17T01:42:04.083Z,1012.89
2023-03-17T01:43:04.041Z,1012.92
2023-03-17T01:44:03.998Z,1012.94
2023-03-17T01:45:03.957Z,1012.98
2023-03-17T01:46:04.037Z,1012.96
2023-03-17T01:47:03.902Z,1012.92
2023-03-17T01:48:03.846Z,1012.92
2023-03-17T01:49:03.826Z,1012.91
2023-03-17T01:50:03.786Z,1012.94
2023-03-17T01:51:03.740Z,1012.91
2023-03-17T01:52:03.764Z,1012.87
2023-03-17T01:53:03.684Z,1012.86
2023-03-17T01:54:03.643Z,1012.80
2023-03-17T01:55:03.606Z,1012.80
2023-03-17T01:56:03.570Z,1012.84
2023-03-17T01:57:03.515Z,1012.81
2023-03-17T01:58:03.548Z,1012.78
2023-03-17T01:59:03.465Z,1012.82
2023-03-17T02:00:03.445Z,1012.82
2023-03-17T02:01:03.403Z,1012.78
2023-03-17T02:02:03.332Z,1012.83
2023-03-17T02:03:03.307Z,1012.82
2023-03-17T02:04:03.336Z,1012.81
2023-03-17T02:05:03.234Z,1012.84
2023-03-17T02:06:03.181Z,1012.79
2023-03-17T02:07:03.158Z,1012.77
2023-03-17T02:08:03.136Z,1012.78
2023-03-17T02:09:03.077Z,1012.80
2023-03-17T02:10:03.101Z,1012.82
2023-03-17T02:11:03.006Z,1012.82
2023-03-17T02:12:03.019Z,1012.79
2023-03-17T02:13:02.932Z,1012.74
2023-03-17T02:14:02.910Z,1012.75
2023-03-17T02:15:02.919Z,1012.72
2023-03-17T02:16:02.833Z,1012.70
2023-03-17T02:17:02.875Z,1012.68
2023-03-17T02:18:02.738Z,1012.67
2023-03-17T02:19:02.710Z,1012.66
2023-03-17T02:20:02.699Z,1012.61
2023-03-17T02:21:02.676Z,1012.65
2023-03-17T02:22:02.632Z,1012.65
2023-03-17T02:23:02.626Z,1012.60
2023-03-17T02:24:02.528Z,1012.61
2023-03-17T02:25:02.501Z,1012.62
2023-03-17T02:26:02.470Z,1012.62
2023-03-17T02:27:02.435Z,1012.62
2023-03-17T02:28:02.388Z,1012.64
2023-03-17T02:29:02.428Z,1012.62
2023-03-17T02:30:02.295Z,1012.62
2023-03-17T02:31:02.320Z,1012.62
2023-03-17T02:32:02.239Z,1012.60
2023-03-17T02:33:02.208Z,1012.57
2023-03-17T02:34:02.158Z,1012.54
2023-03-17T02:35:02.183Z,1012.49
2023-03-17T02:36:02.087Z,1012.46
2023-03-17T02:37:02.063Z,1012.46
2023-03-17T02:38:02.072Z,1012.42
2023-03-17T02:39:01.970Z,1012.44
2023-03-17T02:40:01.956Z,1012.43
2023-03-17T02:41:01.906Z,1012.49
2023-03-17T02:42:01.868Z,1012.45
2023-03-17T02:43:01.878Z,1012.46
2023-03-17T02:44:01.801Z,1012.47
2023-03-17T02:45:01.759Z,1012.49
2023-03-17T02:46:01.778Z,1012.47
2023-03-17T02:47:01.683Z,1012.52
2023-03-17T02:48:01.670Z,1012.51
2023-03-17T02:49:01.672Z,1012.53
2023-03-17T02:50:01.572Z,1012.57
2023-03-17T02:51:01.557Z,1012.48
2023-03-17T02:52:01.515Z,1012.54
2023-03-17T02:53:01.462Z,1012.56
2023-03-17T02:54:01.436Z,1012.57
2023-03-17T02:55:01.440Z,1012.55
2023-03-17T02:56:01.381Z,1012.60
2023-03-17T02:57:01.401Z,1012.62
2023-03-17T02:58:01.277Z,1012.56
2023-03-17T02:59:01.255Z,1012.61
2023-03-17T03:00:01.203Z,1012.60
2023-03-17T03:01:01.249Z,1012.65
2023-03-17T03:02:01.142Z,1012.63
2023-03-17T03:03:01.116Z,1012.61
2023-03-17T03:04:01.057Z,1012.65
2023-03-17T03:05:01.021Z,1012.65
2023-03-17T03:06:03.093Z,1012.64
2023-03-17T03:07:00.951Z,1012.63
2023-03-17T03:08:00.911Z,1012.66
2023-03-17T03:09:00.872Z,1012.65
2023-03-17T03:10:00.845Z,1012.68
2023-03-17T03:11:00.796Z,1012.72
2023-03-17T03:12:00.859Z,1012.70
2023-03-17T03:13:00.729Z,1012.72
2023-03-17T03:14:00.725Z,1012.76
2023-03-17T03:15:00.662Z,1012.72
2023-03-17T03:16:00.704Z,1012.70
2023-03-17T03:17:00.652Z,1012.73
2023-03-17T03:18:00.544Z,1012.69
2023-03-17T03:19:00.513Z,1012.64
2023-03-17T03:20:00.500Z,1012.60
2023-03-17T03:21:00.436Z,1012.61
2023-03-17T03:22:00.470Z,1012.55
2023-03-17T03:23:00.366Z,1012.53
2023-03-17T03:24:00.329Z,1012.50
2023-03-17T03:25:00.335Z,1012.54
2023-03-17T03:26:00.291Z,1012.52
2023-03-17T03:27:00.266Z,1012.56
2023-03-17T03:28:00.173Z,1012.54
2023-03-17T03:29:00.239Z,1012.60
2023-03-17T03:30:00.168Z,1012.57
2023-03-17T03:31:00.103Z,1012.61
2023-03-17T03:32:00.041Z,1012.65
2023-03-17T03:33:00.129Z,1012.71
2023-03-17T03:33:59.965Z,1012.71
2023-03-17T03:34:59.925Z,1012.72
2023-03-17T03:35:59.930Z,1012.72
2023-03-17T03:36:59.939Z,1012.72
2023-03-17T03:37:59.811Z,1012.74
2023-03-17T03:38:59.789Z,1012.71
2023-03-17T03:39:59.741Z,1012.68
2023-03-17T03:40:59.702Z,1012.65
2023-03-17T03:41:59.645Z,1012.67
2023-03-17T03:42:59.923Z,1012.67
2023-03-17T03:43:59.588Z,1012.70
2023-03-17T03:44:59.548Z,1012.70
2023-03-17T03:45:59.497Z,1012.71
2023-03-17T03:46:59.470Z,1012.70
2023-03-17T03:47:59.447Z,1012.68
2023-03-17T03:48:59.492Z,1012.66
2023-03-17T03:49:59.355Z,1012.67
2023-03-17T03:50:59.320Z,1012.60
2023-03-17T03:51:59.292Z,1012.59
2023-03-17T03:52:59.264Z,1012.55
2023-03-17T03:53:59.216Z,1012.55
2023-03-17T03:54:59.240Z,1012.54
2023-03-17T03:55:59.137Z,1012.48
2023-03-17T03:56:59.107Z,1012.46
2023-03-17T03:57:59.085Z,1012.51
2023-03-17T03:58:59.029Z,1012.50
2023-03-17T03:59:58.984Z,1012.48
2023-03-17T04:00:59.011Z,1012.49
2023-03-17T04:01:58.941Z,1012.47
2023-03-17T04:02:58.962Z,1012.46
2023-03-17T04:03:58.833Z,1012.46
2023-03-17T04:04:58.861Z,1012.45
2023-03-17T04:05:58.758Z,1012.45
2023-03-17T04:06:58.780Z,1012.46
2023-03-17T04:07:58.685Z,1012.46
2023-03-17T04:08:58.644Z,1012.38
2023-03-17T04:09:58.621Z,1012.43
2023-03-17T04:10:58.582Z,1012.44
2023-03-17T04:11:58.532Z,1012.38
2023-03-17T04:12:58.567Z,1012.37
2023-03-17T04:13:58.463Z,1012.36
2023-03-17T04:14:58.427Z,1012.34
2023-03-17T04:15:58.475Z,1012.31
2023-03-17T04:16:58.420Z,1012.36
2023-03-17T04:17:58.338Z,1012.32
2023-03-17T04:18:58.349Z,1012.33
2023-03-17T04:19:58.243Z,1012.33
2023-03-17T04:20:58.208Z,1012.32
2023-03-17T04:21:58.246Z,1012.30
2023-03-17T04:22:58.124Z,1012.29
2023-03-17T04:23:58.103Z,1012.28
2023-03-17T04:24:58.054Z,1012.28
2023-03-17T04:25:58.014Z,1012.26
2023-03-17T04:26:58.047Z,1012.25
2023-03-17T04:27:57.964Z,1012.28
2023-03-17T04:28:57.914Z,1012.28
2023-03-17T04:29:57.870Z,1012.20
2023-03-17T04:30:57.840Z,1012.18
2023-03-17T04:31:57.926Z,1012.19
2023-03-17T04:32:57.897Z,1012.15
2023-03-17T04:33:57.744Z,1012.20
2023-03-17T04:34:57.703Z,1012.23
2023-03-17T04:35:57.660Z,1012.21
2023-03-17T04:36:57.623Z,1012.27
2023-03-17T04:37:57.575Z,1012.22
2023-03-17T04:38:57.639Z,1012.21
2023-03-17T04:39:57.499Z,1012.23
2023-03-17T04:40:57.470Z,1012.19
2023-03-17T04:41:57.440Z,1012.15
2023-03-17T04:42:57.385Z,1012.10
2023-03-17T04:43:57.367Z,1012.10
2023-03-17T04:44:57.374Z,1012.08
2023-03-17T04:45:57.346Z,1012.02
2023-03-17T04:46:57.235Z,1012.07
2023-03-17T04:47:57.208Z,1012.08
2023-03-17T04:48:57.198Z,1012.02
2023-03-17T04:49:57.141Z,1012.01
2023-03-17T04:50:57.169Z,1011.97
2023-03-17T04:51:57.069Z,1011.99
2023-03-17T04:52:57.027Z,1012.05
2023-03-17T04:53:57.008Z,1012.11
2023-03-17T04:54:56.949Z,1012.08
2023-03-17T04:55:56.913Z,1012.11
2023-03-17T04:56:56.955Z,1012.13
2023-03-17T04:57:56.844Z,1012.14
2023-03-17T04:58:56.797Z,1012.15
2023-03-17T04:59:56.764Z,1012.19
2023-03-17T05:00:56.747Z,1012.18
2023-03-17T05:01:56.703Z,1012.15
2023-03-17T05:02:56.697Z,1012.14
2023-03-17T05:03:56.675Z,1012.11
2023-03-17T05:04:56.571Z,1012.06
2023-03-17T05:05:56.542Z,1012.05
2023-03-17T05:06:56.508Z,1012.02
2023-03-17T05:07:56.469Z,1012.01
2023-03-17T05:08:56.496Z,1012.03
2023-03-17T05:09:56.396Z,1012.09
2023-03-17T05:10:56.361Z,1012.10
2023-03-17T05:11:56.337Z,1012.11
2023-03-17T05:12:56.313Z,1012.12
2023-03-17T05:13:56.252Z,1012.05
2023-03-17T05:14:56.267Z,1012.10
2023-03-17T05:15:56.164Z,1012.11
2023-03-17T05:16:56.184Z,1012.10
2023-03-17T05:17:56.098Z,1012.08
2023-03-17T05:18:56.053Z,1012.08
2023-03-17T05:19:56.058Z,1012.10
2023-03-17T05:20:56.048Z,1012.05
2023-03-17T05:21:55.945Z,1012.02
2023-03-17T05:22:55.946Z,1012.01
2023-03-17T05:23:55.875Z,1012.03
2023-03-17T05:24:55.834Z,1012.06
2023-03-17T05:25:55.844Z,1012.11
2023-03-17T05:26:55.829Z,1011.98
2023-03-17T05:27:55.726Z,1012.04
2023-03-17T05:28:55.688Z,1012.00
2023-03-17T05:29:55.674Z,1012.00
2023-03-17T05:30:55.691Z,1012.02
2023-03-17T05:31:55.576Z,1012.05
2023-03-17T05:32:55.630Z,1012.07
2023-03-17T05:33:55.510Z,1012.03
2023-03-17T05:34:55.459Z,1012.03
2023-03-17T05:35:55.490Z,1012.07
2023-03-17T05:36:55.393Z,1012.00
2023-03-17T05:37:55.361Z,1012.02
2023-03-17T05:38:55.387Z,1012.00
2023-03-17T05:39:55.283Z,1011.99
2023-03-17T05:40:55.280Z,1012.03
2023-03-17T05:41:55.216Z,1012.00
2023-03-17T05:42:55.181Z,1011.93
2023-03-17T05:43:55.142Z,1011.98
2023-03-17T05:44:55.160Z,1011.98
2023-03-17T05:45:55.080Z,1011.95
2023-03-17T05:46:55.030Z,1011.98
2023-03-17T05:47:54.989Z,1011.94
2023-03-17T05:48:54.957Z,1011.99
2023-03-17T05:49:54.925Z,1011.98
2023-03-17T05:50:54.922Z,1012.03
2023-03-17T05:51:54.839Z,1012.01
2023-03-17T05:52:54.806Z,1011.96
2023-03-17T05:53:54.790Z,1012.03
2023-03-17T05:54:54.738Z,1012.02
2023-03-17T05:55:54.695Z,1012.05
2023-03-17T05:56:58.958Z,1012.02
2023-03-17T05:57:54.623Z,1012.01
2023-03-17T05:58:54.591Z,1011.92
2023-03-17T05:59:54.559Z,1011.89
2023-03-17T06:00:54.506Z,1011.88
2023-03-17T06:01:54.478Z,1011.86
2023-03-17T06:02:54.490Z,1011.82
2023-03-17T06:03:54.446Z,1011.83
2023-03-17T06:04:54.366Z,1011.80
2023-03-17T06:05:54.331Z,1011.79
2023-03-17T06:06:54.296Z,1011.80
2023-03-17T06:07:56.468Z,1011.84
2023-03-17T06:08:54.217Z,1011.85
2023-03-17T06:09:54.181Z,1011.90
2023-03-17T06:10:54.132Z,1011.86
2023-03-17T06:11:54.120Z,1011.86
2023-03-17T06:12:54.076Z,1011.81
2023-03-17T06:13:54.090Z,1011.80
2023-03-17T06:14:54.002Z,1011.78
2023-03-17T06:15:53.986Z,1011.67
2023-03-17T06:16:53.924Z,1011.73
2023-03-17T06:17:53.895Z,1011.71
2023-03-17T06:18:53.926Z,1011.78
2023-03-17T06:19:53.813Z,1011.81
2023-03-17T06:20:53.819Z,1011.78
2023-03-17T06:21:53.734Z,1011.81
2023-03-17T06:23:04.068Z,1011.80
2023-03-17T06:23:53.794Z,1011.81
2023-03-17T06:24:55.438Z,1011.78
2023-03-17T06:25:53.607Z,1011.81
2023-03-17T06:26:53.555Z,1011.80
2023-03-17T06:27:53.532Z,1011.87
2023-03-17T06:28:53.479Z,1011.85
2023-03-17T06:29:53.498Z,1011.84
2023-03-17T06:30:53.461Z,1011.81
2023-03-17T06:31:53.376Z,1011.81
2023-03-17T06:32:53.353Z,1011.87
2023-03-17T06:33:53.622Z,1011.78
2023-03-17T06:34:53.254Z,1011.75
2023-03-17T06:35:53.309Z,1011.73
2023-03-17T06:36:53.201Z,1011.71
2023-03-17T06:37:53.155Z,1011.72
2023-03-17T06:38:53.147Z,1011.63
2023-03-17T06:39:53.082Z,1011.61
2023-03-17T06:40:53.045Z,1011.61
2023-03-17T06:41:53.058Z,1011.60
2023-03-17T06:42:52.966Z,1011.56
2023-03-17T06:43:52.945Z,1011.54
2023-03-17T06:44:52.910Z,1011.61
2023-03-17T06:45:52.871Z,1011.60
2023-03-17T06:46:52.930Z,1011.58
2023-03-17T06:47:52.855Z,1011.57
2023-03-17T06:48:52.768Z,1011.53
2023-03-17T06:49:52.712Z,1011.53
2023-03-17T06:50:52.692Z,1011.50
2023-03-17T06:51:52.648Z,1011.58
2023-03-17T06:52:52.633Z,1011.57
2023-03-17T06:53:52.644Z,1011.59
2023-03-17T06:54:52.537Z,1011.56
2023-03-17T06:55:52.503Z,1011.49
2023-03-17T06:56:52.469Z,1011.52
2023-03-17T06:57:52.431Z,1011.51
2023-03-17T06:58:52.466Z,1011.51
2023-03-17T06:59:52.376Z,1011.54
2023-03-17T07:00:52.316Z,1011.55
2023-03-17T07:01:52.340Z,1011.49
2023-03-17T07:02:52.262Z,1011.47
2023-03-17T07:03:52.220Z,1011.51
2023-03-17T07:04:52.281Z,1011.59
2023-03-17T07:05:52.141Z,1011.59
2023-03-17T07:06:52.129Z,1011.61
2023-03-17T07:07:52.074Z,1011.63
2023-03-17T07:08:52.049Z,1011.69
2023-03-17T07:09:52.004Z,1011.72
2023-03-17T07:10:52.009Z,1011.76
2023-03-17T07:11:51.935Z,1011.75
2023-03-17T07:12:51.924Z,1011.70
2023-03-17T07:13:51.863Z,1011.73
2023-03-17T07:14:51.825Z,1011.63
2023-03-17T07:15:54.498Z,1011.59
2023-03-17T07:16:51.904Z,1011.52
2023-03-17T07:17:51.968Z,1011.44
2023-03-17T07:18:51.682Z,1011.37
2023-03-17T07:19:51.665Z,1011.36
2023-03-17T07:20:51.616Z,1011.36
2023-03-17T07:21:51.578Z,1011.44
2023-03-17T07:22:51.627Z,1011.50
2023-03-17T07:23:51.521Z,1011.49
2023-03-17T07:24:51.500Z,1011.56
2023-03-17T07:25:51.435Z,1011.52
2023-03-17T07:26:51.407Z,1011.48
2023-03-17T07:27:51.369Z,1011.37
2023-03-17T07:28:51.382Z,1011.38
2023-03-17T07:29:51.290Z,1011.37
2023-03-17T07:30:51.320Z,1011.41
2023-03-17T07:31:51.267Z,1011.58
2023-03-17T07:32:51.264Z,1011.61
2023-03-17T07:33:51.170Z,1011.63
2023-03-17T07:34:51.119Z,1011.67
2023-03-17T07:35:51.693Z,1011.73
2023-03-17T07:36:51.069Z,1011.65
2023-03-17T07:37:51.059Z,1011.66
2023-03-17T07:38:50.975Z,1011.62
2023-03-17T07:39:50.955Z,1011.63
2023-03-17T07:40:50.908Z,1011.59
2023-03-17T07:41:50.923Z,1011.56
2023-03-17T07:42:50.840Z,1011.58
2023-03-17T07:43:50.815Z,1011.60
2023-03-17T07:44:50.779Z,1011.67
2023-03-17T07:45:50.768Z,1011.69
2023-03-17T07:46:50.692Z,1011.68
2023-03-17T07:47:50.774Z,1011.64
2023-03-17T07:48:50.642Z,1011.60
2023-03-17T07:49:50.597Z,1011.53
2023-03-17T07:50:50.557Z,1011.51
2023-03-17T07:51:50.553Z,1011.55
2023-03-17T07:52:50.492Z,1011.60
2023-03-17T07:53:50.499Z,1011.63
2023-03-17T07:54:50.412Z,1011.64
2023-03-17T07:55:50.414Z,1011.66
2023-03-17T07:56:50.345Z,1011.70
2023-03-17T07:57:50.324Z,1011.60
2023-03-17T07:58:50.288Z,1011.63
2023-03-17T07:59:50.302Z,1011.62
2023-03-17T08:00:50.249Z,1011.67
2023-03-17T08:01:50.211Z,1011.69
2023-03-17T08:03:06.886Z,1011.67
2023-03-17T08:03:50.147Z,1011.60
2023-03-17T08:04:50.075Z,1011.60
2023-03-17T08:05:50.114Z,1011.58
2023-03-17T08:06:50.000Z,1011.57
2023-03-17T08:07:49.965Z,1011.53
2023-03-17T08:08:49.932Z,1011.57
2023-03-17T08:09:49.891Z,1011.52
2023-03-17T08:10:49.898Z,1011.52
2023-03-17T08:11:49.883Z,1011.55
2023-03-17T08:12:49.798Z,1011.52
2023-03-17T08:13:49.761Z,1011.51
2023-03-17T08:14:49.723Z,1011.49
2023-03-17T08:15:49.683Z,1011.44
2023-03-17T08:16:49.698Z,1011.42
2023-03-17T08:17:49.685Z,1011.41
2023-03-17T08:18:49.583Z,1011.37
2023-03-17T08:19:49.580Z,1011.37
2023-03-17T08:20:49.542Z,1011.31
2023-03-17T08:21:49.549Z,1011.31
2023-03-17T08:22:49.449Z,1011.36
2023-03-17T08:23:49.509Z,1011.38
2023-03-17T08:24:49.395Z,1011.36
2023-03-17T08:25:49.395Z,1011.34
2023-03-17T08:26:49.363Z,1011.39
2023-03-17T08:27:49.302Z,1011.39
2023-03-17T08:28:49.284Z,1011.44
2023-03-17T08:29:49.337Z,1011.37
2023-03-17T08:30:50.590Z,1011.45
2023-03-17T08:31:49.242Z,1011.39
2023-03-17T08:32:49.222Z,1011.31
2023-03-17T08:33:49.079Z,1011.34
2023-03-17T08:34:49.116Z,1011.33
2023-03-17T08:35:49.118Z,1011.24
2023-03-17T08:36:48.995Z,1011.22
2023-03-17T08:37:48.958Z,1011.22
2023-03-17T08:38:48.924Z,1011.23
2023-03-17T08:39:48.895Z,1011.22
2023-03-17T08:40:48.853Z,1011.21
2023-03-17T08:41:48.868Z,1011.10
2023-03-17T08:42:48.784Z,1011.12
2023-03-17T08:43:48.762Z,1011.12
2023-03-17T08:44:48.713Z,1011.05
2023-03-17T08:45:48.726Z,1011.06
2023-03-17T08:46:48.646Z,1011.08
2023-03-17T08:47:48.662Z,1011.09
2023-03-17T08:48:48.583Z,1011.10
2023-03-17T08:49:48.605Z,1011.06
2023-03-17T08:50:48.554Z,1010.96
2023-03-17T08:51:48.487Z,1011.01
2023-03-17T08:52:48.447Z,1010.99
2023-03-17T08:53:48.756Z,1011.06
2023-03-17T08:54:48.393Z,1011.13
2023-03-17T08:55:48.403Z,1011.12
2023-03-17T08:56:48.322Z,1011.06
2023-03-17T08:57:48.304Z,1011.06
2023-03-17T08:58:48.265Z,1011.04
2023-03-17T08:59:48.231Z,1011.02
2023-03-17T09:00:48.193Z,1011.01
2023-03-17T09:01:48.350Z,1010.96
2023-03-17T09:02:48.179Z,1010.98
2023-03-17T09:03:48.100Z,1010.95
2023-03-17T09:04:48.083Z,1010.88
2023-03-17T09:05:48.045Z,1010.95
2023-03-17T09:07:02.193Z,1010.94
2023-03-17T09:07:48.055Z,1010.93
2023-03-17T09:08:47.979Z,1010.99
2023-03-17T09:09:47.903Z,1010.99
2023-03-17T09:10:47.879Z,1010.99
2023-03-17T09:11:47.846Z,1011.01
2023-03-17T09:12:47.818Z,1010.93
2023-03-17T09:13:47.844Z,1010.87
2023-03-17T09:14:49.253Z,1010.88
2023-03-17T09:15:48.663Z,1010.93
2023-03-17T09:16:47.690Z,1010.91
2023-03-17T09:17:47.658Z,1010.89
2023-03-17T09:18:47.692Z,1010.94
2023-03-17T09:19:47.654Z,1010.86
2023-03-17T09:20:47.554Z,1010.85
2023-03-17T09:21:47.521Z,1010.83
2023-03-17T09:22:47.484Z,1010.82
2023-03-17T09:23:47.498Z,1010.83
2023-03-17T09:24:47.425Z,1010.77
2023-03-17T09:25:47.425Z,1010.82
2023-03-17T09:26:47.368Z,1010.80
2023-03-17T09:27:47.331Z,1010.78
2023-03-17T09:28:47.293Z,1010.79
2023-03-17T09:29:47.295Z,1010.83
2023-03-17T09:30:47.297Z,1010.83
2023-03-17T09:31:47.258Z,1010.75
2023-03-17T09:32:47.223Z,1010.74
2023-03-17T09:33:47.139Z,1010.77
2023-03-17T09:34:47.575Z,1010.77
2023-03-17T09:35:47.090Z,1010.76
2023-03-17T09:36:47.048Z,1010.81
2023-03-17T09:37:47.077Z,1010.79
2023-03-17T09:38:46.987Z,1010.77
2023-03-17T09:39:46.948Z,1010.79
2023-03-17T09:40:46.923Z,1010.80
2023-03-17T09:41:46.895Z,1010.75
2023-03-17T09:42:46.866Z,1010.74
2023-03-17T09:43:46.864Z,1010.70
2023-03-17T09:44:46.793Z,1010.73
2023-03-17T09:45:46.758Z,1010.76
2023-03-17T09:46:46.844Z,1010.72
2023-03-17T09:47:46.702Z,1010.73
2023-03-17T09:48:46.665Z,1010.72
2023-03-17T09:49:46.696Z,1010.71
2023-03-17T09:50:46.607Z,1010.70
2023-03-17T09:51:46.571Z,1010.72
2023-03-17T09:52:46.544Z,1010.75
2023-03-17T09:53:46.506Z,1010.75
2023-03-17T09:54:46.491Z,1010.78
2023-03-17T09:55:46.497Z,1010.81
2023-03-17T09:56:46.416Z,1010.79
2023-03-17T09:57:46.476Z,1010.81
2023-03-17T09:58:48.471Z,1010.85
2023-03-17T09:59:46.323Z,1010.85
2023-03-17T10:00:46.303Z,1010.74
2023-03-17T10:01:46.309Z,1010.81
2023-03-17T10:02:46.301Z,1010.76
2023-03-17T10:03:46.198Z,1010.74
2023-03-17T10:04:46.233Z,1010.79
2023-03-17T10:05:46.199Z,1010.83
2023-03-17T10:06:46.117Z,1010.81
2023-03-17T10:07:46.140Z,1010.78
2023-03-17T10:08:46.050Z,1010.84
2023-03-17T10:09:46.006Z,1010.80
2023-03-17T10:10:45.986Z,1010.79
2023-03-17T10:11:45.952Z,1010.73
2023-03-17T10:12:45.915Z,1010.74
2023-03-17T10:13:46.000Z,1010.76
2023-03-17T10:14:45.856Z,1010.77
2023-03-17T10:15:45.936Z,1010.76
2023-03-17T10:16:45.823Z,1010.73
2023-03-17T10:17:45.774Z,1010.74
2023-03-17T10:18:45.762Z,1010.73
2023-03-17T10:24:29.581Z,1010.67
2023-03-17T10:25:21.866Z,1010.74
2023-03-17T10:26:21.831Z,1010.69
2023-03-17T10:27:21.831Z,1010.70
2023-03-17T10:28:21.766Z,1010.72
2023-03-17T10:29:21.739Z,1010.69
2023-03-17T10:30:21.770Z,1010.63
2023-03-17T10:31:21.733Z,1010.63
2023-03-17T10:32:21.636Z,1010.66
2023-03-17T10:33:21.619Z,1010.64
2023-03-17T10:34:21.589Z,1010.59
2023-03-17T10:35:21.546Z,1010.60
2023-03-17T10:36:21.561Z,1010.59
2023-03-17T10:37:21.485Z,1010.58
2023-03-17T10:38:21.482Z,1010.51
2023-03-17T10:39:21.461Z,1010.51
2023-03-17T10:40:21.416Z,1010.52
2023-03-17T10:41:21.355Z,1010.50
2023-03-17T10:42:21.387Z,1010.49
2023-03-17T10:43:21.301Z,1010.49
2023-03-17T10:44:21.272Z,1010.51
2023-03-17T10:45:21.242Z,1010.44
2023-03-17T10:46:21.240Z,1010.43
2023-03-17T10:47:21.181Z,1010.49
2023-03-17T10:48:21.208Z,1010.51
2023-03-17T10:49:21.124Z,1010.58
2023-03-17T10:50:21.098Z,1010.61
2023-03-17T10:51:21.117Z,1010.59
2023-03-17T10:52:21.103Z,1010.53
2023-03-17T10:53:21.008Z,1010.54
2023-03-17T10:54:21.020Z,1010.52
2023-03-17T10:55:20.945Z,1010.51
2023-03-17T10:56:20.915Z,1010.48
2023-03-17T10:57:20.871Z,1010.50
2023-03-17T10:58:20.854Z,1010.44
2023-03-17T10:59:20.918Z,1010.42
2023-03-17T11:00:20.909Z,1010.43
2023-03-17T11:01:20.780Z,1010.39
2023-03-17T11:02:20.730Z,1010.38
2023-03-17T11:03:20.707Z,1010.34
2023-03-17T11:04:20.793Z,1010.38
2023-03-17T11:05:20.650Z,1010.36
2023-03-17T11:06:20.708Z,1010.41
2023-03-17T11:07:20.581Z,1010.35
2023-03-17T11:08:20.552Z,1010.34
2023-03-17T11:09:20.528Z,1010.31
2023-03-17T11:10:20.499Z,1010.30
2023-03-17T11:11:21.311Z,1010.26
2023-03-17T11:12:20.498Z,1010.29
2023-03-17T11:13:20.409Z,1010.31
2023-03-17T11:14:20.375Z,1010.28
2023-03-17T11:15:20.382Z,1010.25
2023-03-17T11:16:20.388Z,1010.21
2023-03-17T11:17:20.295Z,1010.18
2023-03-17T11:18:20.308Z,1010.19
2023-03-17T11:19:20.225Z,1010.18
2023-03-17T11:20:20.193Z,1010.20
2023-03-17T11:21:20.166Z,1010.20
2023-03-17T11:22:20.135Z,1010.17
2023-03-17T11:23:20.137Z,1010.18
2023-03-17T11:24:20.131Z,1010.21
2023-03-17T11:25:20.039Z,1010.11
2023-03-17T11:26:20.016Z,1010.12
2023-03-17T11:27:19.997Z,1010.07
2023-03-17T11:28:20.090Z,1010.13
2023-03-17T11:29:19.932Z,1010.09
2023-03-17T11:30:19.956Z,1010.13
2023-03-17T11:31:19.947Z,1010.11
2023-03-17T11:32:19.835Z,1010.09
2023-03-17T11:33:19.842Z,1010.11
2023-03-17T11:34:19.783Z,1010.10
2023-03-17T11:35:19.758Z,1010.10
2023-03-17T11:36:19.857Z,1010.08
2023-03-17T11:37:19.696Z,1010.07
2023-03-17T11:38:19.660Z,1010.08
2023-03-17T11:39:19.633Z,1010.08
2023-03-17T11:40:19.627Z,1010.09
2023-03-17T11:41:19.564Z,1010.06
2023-03-17T11:42:19.589Z,1010.05
2023-03-17T11:43:19.528Z,1010.04
2023-03-17T11:44:19.485Z,1010.07
2023-03-17T11:45:19.475Z,1010.01
2023-03-17T11:46:19.459Z,1010.06
2023-03-17T11:47:19.410Z,1010.03
2023-03-17T11:48:19.410Z,1010.02
2023-03-17T11:49:19.365Z,1010.02
2023-03-17T11:50:19.304Z,1010.01
2023-03-17T11:51:19.277Z,1009.96
2023-03-17T11:52:19.256Z,1009.96
2023-03-17T11:53:19.284Z,1010.00
2023-03-17T11:54:19.181Z,1009.95
2023-03-17T11:55:19.158Z,1009.96
2023-03-17T11:56:19.126Z,1009.92
2023-03-17T11:57:19.094Z,1009.95
2023-03-17T11:58:19.063Z,1009.96
2023-03-17T11:59:19.093Z,1009.97
2023-03-17T12:00:19.082Z,1009.96
2023-03-17T12:01:19.016Z,1009.95
2023-03-17T12:02:18.941Z,1009.98
2023-03-17T12:03:18.958Z,1009.93
2023-03-17T12:04:18.937Z,1009.90
2023-03-17T12:05:18.947Z,1009.84
2023-03-17T12:06:18.831Z,1009.88
2023-03-17T12:07:18.846Z,1009.85
2023-03-17T12:08:18.771Z,1009.85
2023-03-17T12:09:18.744Z,1009.86
2023-03-17T12:10:18.710Z,1009.85